sensor_id;sensor_type;location;lat;lon;timestamp;P1;durP1;ratioP1;P2;durP2;ratioP2
35981;SDS011;22058;0.000;0.000;2023-04-01T00:00:54;5.65;;;1.63;;
35981;SDS011;22058;0.000;0.000;2023-04-01T00:03:21;6.28;;;2.20;;
35981;SDS011;22058;0.000;0.000;2023-04-01T00:05:48;6.32;;;1.88;;
35981;SDS011;22058;0.000;0.000;2023-04-01T00:08:15;8.18;;;2.38;;
35981;SDS011;22058;0.000;0.000;2023-04-01T00:10:41;6.85;;;1.83;;
35981;SDS011;22058;0.000;0.000;2023-04-01T00:13:08;9.02;;;2.33;;
35981;SDS011;22058;0.000;0.000;2023-04-01T00:15:34;5.97;;;1.98;;
35981;SDS011;22058;0.000;0.000;2023-04-01T00:18:00;4.95;;;1.80;;
35981;SDS011;22058;0.000;0.000;2023-04-01T00:20:27;6.10;;;2.22;;
35981;SDS011;22058;0.000;0.000;2023-04-01T00:22:53;3.50;;;1.63;;
35981;SDS011;22058;0.000;0.000;2023-04-01T00:25:20;5.15;;;1.85;;
35981;SDS011;22058;0.000;0.000;2023-04-01T00:27:46;5.80;;;1.83;;
35981;SDS011;22058;0.000;0.000;2023-04-01T00:30:12;3.35;;;1.40;;
35981;SDS011;22058;0.000;0.000;2023-04-01T00:32:38;5.03;;;1.48;;
35981;SDS011;22058;0.000;0.000;2023-04-01T00:35:05;5.03;;;1.65;;
35981;SDS011;22058;0.000;0.000;2023-04-01T00:37:31;3.78;;;1.63;;
35981;SDS011;22058;0.000;0.000;2023-04-01T00:40:00;6.30;;;2.60;;
35981;SDS011;22058;0.000;0.000;2023-04-01T00:42:27;11.23;;;1.45;;
35981;SDS011;22058;0.000;0.000;2023-04-01T00:44:54;8.85;;;1.58;;
35981;SDS011;22058;0.000;0.000;2023-04-01T00:47:21;4.75;;;1.52;;
35981;SDS011;22058;0.000;0.000;2023-04-01T00:49:49;2.63;;;1.42;;
35981;SDS011;22058;0.000;0.000;2023-04-01T00:52:17;3.80;;;1.80;;
35981;SDS011;22058;0.000;0.000;2023-04-01T00:54:45;6.75;;;1.60;;
35981;SDS011;22058;0.000;0.000;2023-04-01T00:57:12;11.77;;;2.08;;
35981;SDS011;22058;0.000;0.000;2023-04-01T00:59:40;3.75;;;1.45;;
35981;SDS011;22058;0.000;0.000;2023-04-01T01:02:08;6.78;;;1.80;;
35981;SDS011;22058;0.000;0.000;2023-04-01T01:04:36;3.88;;;2.25;;
35981;SDS011;22058;0.000;0.000;2023-04-01T01:10:38;3.97;;;1.60;;
35981;SDS011;22058;0.000;0.000;2023-04-01T01:15:07;4.63;;;1.52;;
35981;SDS011;22058;0.000;0.000;2023-04-01T01:17:44;7.40;;;1.60;;
35981;SDS011;22058;0.000;0.000;2023-04-01T01:20:35;6.53;;;1.75;;
35981;SDS011;22058;0.000;0.000;2023-04-01T01:25:43;4.07;;;1.60;;
35981;SDS011;22058;0.000;0.000;2023-04-01T01:30:42;2.83;;;1.40;;
35981;SDS011;22058;0.000;0.000;2023-04-01T01:33:13;2.85;;;1.42;;
35981;SDS011;22058;0.000;0.000;2023-04-01T01:35:46;3.67;;;1.10;;
35981;SDS011;22058;0.000;0.000;2023-04-01T01:38:15;2.60;;;1.48;;
35981;SDS011;22058;0.000;0.000;2023-04-01T01:40:43;3.90;;;1.23;;
35981;SDS011;22058;0.000;0.000;2023-04-01T01:43:11;3.70;;;1.90;;
35981;SDS011;22058;0.000;0.000;2023-04-01T01:45:39;3.70;;;1.20;;
35981;SDS011;22058;0.000;0.000;2023-04-01T01:48:06;2.30;;;1.40;;
35981;SDS011;22058;0.000;0.000;2023-04-01T01:50:34;3.60;;;2.10;;
35981;SDS011;22058;0.000;0.000;2023-04-01T01:53:05;8.27;;;2.03;;
35981;SDS011;22058;0.000;0.000;2023-04-01T01:55:36;3.63;;;1.45;;
35981;SDS011;22058;0.000;0.000;2023-04-01T01:58:04;4.03;;;1.00;;
35981;SDS011;22058;0.000;0.000;2023-04-01T02:00:32;4.18;;;1.67;;
35981;SDS011;22058;0.000;0.000;2023-04-01T02:02:58;4.63;;;1.10;;
35981;SDS011;22058;0.000;0.000;2023-04-01T02:05:25;2.50;;;1.33;;
35981;SDS011;22058;0.000;0.000;2023-04-01T02:07:55;3.35;;;1.35;;
35981;SDS011;22058;0.000;0.000;2023-04-01T02:10:24;2.65;;;1.30;;
35981;SDS011;22058;0.000;0.000;2023-04-01T02:12:51;1.20;;;1.10;;
35981;SDS011;22058;0.000;0.000;2023-04-01T02:15:19;5.45;;;1.30;;
35981;SDS011;22058;0.000;0.000;2023-04-01T02:17:46;2.95;;;1.50;;
35981;SDS011;22058;0.000;0.000;2023-04-01T02:20:20;4.78;;;1.65;;
35981;SDS011;22058;0.000;0.000;2023-04-01T02:22:48;2.72;;;1.92;;
35981;SDS011;22058;0.000;0.000;2023-04-01T02:25:20;3.78;;;1.48;;
35981;SDS011;22058;0.000;0.000;2023-04-01T02:27:47;3.35;;;1.52;;
35981;SDS011;22058;0.000;0.000;2023-04-01T02:30:14;4.32;;;1.85;;
35981;SDS011;22058;0.000;0.000;2023-04-01T02:32:40;5.22;;;1.40;;
35981;SDS011;22058;0.000;0.000;2023-04-01T02:35:10;4.55;;;1.45;;
35981;SDS011;22058;0.000;0.000;2023-04-01T02:37:38;2.20;;;1.10;;
35981;SDS011;22058;0.000;0.000;2023-04-01T02:40:07;5.78;;;1.50;;
35981;SDS011;22058;0.000;0.000;2023-04-01T02:42:34;3.47;;;2.08;;
35981;SDS011;22058;0.000;0.000;2023-04-01T02:45:01;2.78;;;1.45;;
35981;SDS011;22058;0.000;0.000;2023-04-01T02:47:27;4.65;;;1.30;;
35981;SDS011;22058;0.000;0.000;2023-04-01T02:49:54;3.03;;;0.93;;
35981;SDS011;22058;0.000;0.000;2023-04-01T02:52:24;8.25;;;1.63;;
35981;SDS011;22058;0.000;0.000;2023-04-01T02:54:50;2.60;;;1.38;;
35981;SDS011;22058;0.000;0.000;2023-04-01T02:57:16;10.93;;;1.23;;
35981;SDS011;22058;0.000;0.000;2023-04-01T02:59:42;1.73;;;1.13;;
35981;SDS011;22058;0.000;0.000;2023-04-01T03:02:08;2.20;;;1.45;;
35981;SDS011;22058;0.000;0.000;2023-04-01T03:04:34;4.32;;;1.10;;
35981;SDS011;22058;0.000;0.000;2023-04-01T03:07:00;2.42;;;1.25;;
35981;SDS011;22058;0.000;0.000;2023-04-01T03:09:27;3.55;;;1.17;;
35981;SDS011;22058;0.000;0.000;2023-04-01T03:11:53;3.15;;;1.33;;
35981;SDS011;22058;0.000;0.000;2023-04-01T03:14:20;3.28;;;1.15;;
35981;SDS011;22058;0.000;0.000;2023-04-01T03:16:46;2.13;;;1.83;;
35981;SDS011;22058;0.000;0.000;2023-04-01T03:19:12;2.38;;;1.23;;
35981;SDS011;22058;0.000;0.000;2023-04-01T03:21:38;1.55;;;0.88;;
35981;SDS011;22058;0.000;0.000;2023-04-01T03:24:04;3.28;;;1.50;;
35981;SDS011;22058;0.000;0.000;2023-04-01T03:26:31;5.57;;;2.53;;
35981;SDS011;22058;0.000;0.000;2023-04-01T03:28:57;2.17;;;1.40;;
35981;SDS011;22058;0.000;0.000;2023-04-01T03:31:23;4.97;;;1.40;;
35981;SDS011;22058;0.000;0.000;2023-04-01T03:33:50;2.80;;;1.05;;
35981;SDS011;22058;0.000;0.000;2023-04-01T03:36:16;1.90;;;1.10;;
35981;SDS011;22058;0.000;0.000;2023-04-01T03:38:43;2.83;;;1.30;;
35981;SDS011;22058;0.000;0.000;2023-04-01T03:41:13;3.13;;;1.65;;
35981;SDS011;22058;0.000;0.000;2023-04-01T03:43:40;4.35;;;1.23;;
35981;SDS011;22058;0.000;0.000;2023-04-01T03:46:06;2.00;;;1.00;;
35981;SDS011;22058;0.000;0.000;2023-04-01T03:48:32;4.32;;;1.10;;
35981;SDS011;22058;0.000;0.000;2023-04-01T03:50:58;2.35;;;1.45;;
35981;SDS011;22058;0.000;0.000;2023-04-01T03:53:24;3.70;;;1.63;;
35981;SDS011;22058;0.000;0.000;2023-04-01T03:55:51;2.08;;;0.95;;
35981;SDS011;22058;0.000;0.000;2023-04-01T03:58:18;3.92;;;1.20;;
35981;SDS011;22058;0.000;0.000;2023-04-01T04:00:44;5.32;;;1.10;;
35981;SDS011;22058;0.000;0.000;2023-04-01T04:03:11;3.08;;;1.08;;
35981;SDS011;22058;0.000;0.000;2023-04-01T04:05:37;3.58;;;1.13;;
35981;SDS011;22058;0.000;0.000;2023-04-01T04:08:03;3.50;;;1.25;;
35981;SDS011;22058;0.000;0.000;2023-04-01T04:10:29;4.38;;;1.00;;
35981;SDS011;22058;0.000;0.000;2023-04-01T04:12:55;2.80;;;1.30;;
35981;SDS011;22058;0.000;0.000;2023-04-01T04:15:21;2.70;;;1.42;;
35981;SDS011;22058;0.000;0.000;2023-04-01T04:17:48;2.13;;;1.40;;
35981;SDS011;22058;0.000;0.000;2023-04-01T04:20:14;2.67;;;1.10;;
35981;SDS011;22058;0.000;0.000;2023-04-01T04:22:40;3.47;;;1.00;;
35981;SDS011;22058;0.000;0.000;2023-04-01T04:25:07;3.97;;;2.30;;
35981;SDS011;22058;0.000;0.000;2023-04-01T04:27:33;2.83;;;0.82;;
35981;SDS011;22058;0.000;0.000;2023-04-01T04:30:00;1.45;;;0.90;;
35981;SDS011;22058;0.000;0.000;2023-04-01T04:32:26;2.42;;;1.73;;
35981;SDS011;22058;0.000;0.000;2023-04-01T04:34:52;2.08;;;1.00;;
35981;SDS011;22058;0.000;0.000;2023-04-01T04:37:18;1.92;;;1.10;;
35981;SDS011;22058;0.000;0.000;2023-04-01T04:39:44;2.22;;;1.15;;
35981;SDS011;22058;0.000;0.000;2023-04-01T04:42:11;3.58;;;1.08;;
35981;SDS011;22058;0.000;0.000;2023-04-01T04:44:37;3.10;;;1.20;;
35981;SDS011;22058;0.000;0.000;2023-04-01T04:47:03;2.53;;;1.10;;
35981;SDS011;22058;0.000;0.000;2023-04-01T04:49:29;4.90;;;1.10;;
35981;SDS011;22058;0.000;0.000;2023-04-01T04:51:55;3.08;;;1.52;;
35981;SDS011;22058;0.000;0.000;2023-04-01T04:54:21;2.22;;;1.40;;
35981;SDS011;22058;0.000;0.000;2023-04-01T04:56:47;3.92;;;1.00;;
35981;SDS011;22058;0.000;0.000;2023-04-01T04:59:14;1.92;;;0.98;;
35981;SDS011;22058;0.000;0.000;2023-04-01T05:01:40;6.53;;;1.30;;
35981;SDS011;22058;0.000;0.000;2023-04-01T05:04:06;1.02;;;0.80;;
35981;SDS011;22058;0.000;0.000;2023-04-01T05:06:32;3.22;;;1.25;;
35981;SDS011;22058;0.000;0.000;2023-04-01T05:08:58;4.57;;;1.08;;
35981;SDS011;22058;0.000;0.000;2023-04-01T05:11:24;2.67;;;1.20;;
35981;SDS011;22058;0.000;0.000;2023-04-01T05:13:51;3.55;;;1.42;;
35981;SDS011;22058;0.000;0.000;2023-04-01T05:16:18;1.48;;;1.08;;
35981;SDS011;22058;0.000;0.000;2023-04-01T05:18:44;3.97;;;1.88;;
35981;SDS011;22058;0.000;0.000;2023-04-01T05:21:12;1.80;;;1.15;;
35981;SDS011;22058;0.000;0.000;2023-04-01T05:23:38;2.88;;;0.90;;
35981;SDS011;22058;0.000;0.000;2023-04-01T05:26:05;4.47;;;1.23;;
35981;SDS011;22058;0.000;0.000;2023-04-01T05:28:32;1.60;;;0.95;;
35981;SDS011;22058;0.000;0.000;2023-04-01T05:30:58;2.03;;;0.93;;
35981;SDS011;22058;0.000;0.000;2023-04-01T05:33:25;1.25;;;0.80;;
35981;SDS011;22058;0.000;0.000;2023-04-01T05:35:52;2.88;;;0.98;;
35981;SDS011;22058;0.000;0.000;2023-04-01T05:38:18;1.67;;;0.98;;
35981;SDS011;22058;0.000;0.000;2023-04-01T05:40:44;2.55;;;1.63;;
35981;SDS011;22058;0.000;0.000;2023-04-01T05:43:11;1.92;;;0.95;;
35981;SDS011;22058;0.000;0.000;2023-04-01T05:45:37;3.70;;;1.15;;
35981;SDS011;22058;0.000;0.000;2023-04-01T05:48:03;1.88;;;1.23;;
35981;SDS011;22058;0.000;0.000;2023-04-01T05:50:29;1.92;;;1.00;;
35981;SDS011;22058;0.000;0.000;2023-04-01T05:52:56;4.07;;;1.10;;
35981;SDS011;22058;0.000;0.000;2023-04-01T05:55:22;2.03;;;1.67;;
35981;SDS011;22058;0.000;0.000;2023-04-01T05:57:49;0.90;;;0.80;;
35981;SDS011;22058;0.000;0.000;2023-04-01T06:00:16;1.58;;;0.93;;
35981;SDS011;22058;0.000;0.000;2023-04-01T06:02:42;6.40;;;0.90;;
35981;SDS011;22058;0.000;0.000;2023-04-01T06:05:19;1.25;;;1.05;;
35981;SDS011;22058;0.000;0.000;2023-04-01T06:07:46;1.92;;;1.17;;
35981;SDS011;22058;0.000;0.000;2023-04-01T06:10:14;2.03;;;0.90;;
35981;SDS011;22058;0.000;0.000;2023-04-01T06:12:51;2.22;;;0.98;;
35981;SDS011;22058;0.000;0.000;2023-04-01T06:43:50;0.90;;;0.70;;
35981;SDS011;22058;0.000;0.000;2023-04-01T06:46:19;1.38;;;0.80;;
35981;SDS011;22058;0.000;0.000;2023-04-01T06:54:24;1.92;;;1.00;;
35981;SDS011;22058;0.000;0.000;2023-04-01T06:56:57;1.35;;;0.90;;
35981;SDS011;22058;0.000;0.000;2023-04-01T06:59:28;1.38;;;0.80;;
35981;SDS011;22058;0.000;0.000;2023-04-01T07:01:55;1.88;;;1.10;;
35981;SDS011;22058;0.000;0.000;2023-04-01T07:04:33;1.73;;;0.90;;
35981;SDS011;22058;0.000;0.000;2023-04-01T07:09:49;1.17;;;0.70;;
35981;SDS011;22058;0.000;0.000;2023-04-01T07:13:02;3.17;;;1.00;;
35981;SDS011;22058;0.000;0.000;2023-04-01T07:15:14;1.50;;;0.80;;
35981;SDS011;22058;0.000;0.000;2023-04-01T07:17:42;1.15;;;0.88;;
35981;SDS011;22058;0.000;0.000;2023-04-01T07:20:17;1.63;;;1.38;;
35981;SDS011;22058;0.000;0.000;2023-04-01T07:22:47;0.98;;;0.90;;
35981;SDS011;22058;0.000;0.000;2023-04-01T07:25:17;3.42;;;1.00;;
35981;SDS011;22058;0.000;0.000;2023-04-01T07:27:44;6.20;;;1.30;;
35981;SDS011;22058;0.000;0.000;2023-04-01T07:30:15;2.40;;;0.93;;
35981;SDS011;22058;0.000;0.000;2023-04-01T07:35:22;2.92;;;0.98;;
35981;SDS011;22058;0.000;0.000;2023-04-01T07:37:56;1.02;;;0.90;;
35981;SDS011;22058;0.000;0.000;2023-04-01T07:40:37;5.32;;;0.98;;
35981;SDS011;22058;0.000;0.000;2023-04-01T08:01:27;3.55;;;1.23;;
35981;SDS011;22058;0.000;0.000;2023-04-01T08:06:28;3.75;;;0.90;;
35981;SDS011;22058;0.000;0.000;2023-04-01T08:14:29;2.25;;;1.13;;
35981;SDS011;22058;0.000;0.000;2023-04-01T08:17:07;1.95;;;1.13;;
35981;SDS011;22058;0.000;0.000;2023-04-01T08:22:03;4.15;;;1.10;;
35981;SDS011;22058;0.000;0.000;2023-04-01T08:24:35;3.20;;;0.80;;
35981;SDS011;22058;0.000;0.000;2023-04-01T08:27:06;1.42;;;1.00;;
35981;SDS011;22058;0.000;0.000;2023-04-01T08:32:11;1.20;;;0.88;;
35981;SDS011;22058;0.000;0.000;2023-04-01T08:34:39;1.85;;;1.00;;
35981;SDS011;22058;0.000;0.000;2023-04-01T08:37:14;2.20;;;0.93;;
35981;SDS011;22058;0.000;0.000;2023-04-01T08:39:56;2.28;;;1.00;;
35981;SDS011;22058;0.000;0.000;2023-04-01T08:42:43;1.77;;;0.93;;
35981;SDS011;22058;0.000;0.000;2023-04-01T08:53:18;3.70;;;0.90;;
35981;SDS011;22058;0.000;0.000;2023-04-01T08:55:51;1.40;;;0.93;;
35981;SDS011;22058;0.000;0.000;2023-04-01T09:00:47;5.80;;;1.00;;
35981;SDS011;22058;0.000;0.000;2023-04-01T09:03:37;3.05;;;1.00;;
35981;SDS011;22058;0.000;0.000;2023-04-01T09:16:24;1.67;;;1.10;;
35981;SDS011;22058;0.000;0.000;2023-04-01T09:21:31;1.15;;;1.00;;
35981;SDS011;22058;0.000;0.000;2023-04-01T09:32:02;1.92;;;1.00;;
35981;SDS011;22058;0.000;0.000;2023-04-01T09:44:23;2.65;;;2.45;;
35981;SDS011;22058;0.000;0.000;2023-04-01T09:49:25;1.50;;;1.13;;
35981;SDS011;22058;0.000;0.000;2023-04-01T09:52:07;2.55;;;0.90;;
35981;SDS011;22058;0.000;0.000;2023-04-01T09:54:39;1.92;;;0.93;;
35981;SDS011;22058;0.000;0.000;2023-04-01T10:07:37;2.50;;;0.90;;
35981;SDS011;22058;0.000;0.000;2023-04-01T10:21:43;2.63;;;1.13;;
35981;SDS011;22058;0.000;0.000;2023-04-01T10:26:22;1.52;;;0.77;;
35981;SDS011;22058;0.000;0.000;2023-04-01T10:36:48;3.78;;;1.20;;
35981;SDS011;22058;0.000;0.000;2023-04-01T10:42:11;1.40;;;1.00;;
35981;SDS011;22058;0.000;0.000;2023-04-01T10:49:55;1.00;;;0.70;;
35981;SDS011;22058;0.000;0.000;2023-04-01T10:52:46;1.33;;;0.90;;
35981;SDS011;22058;0.000;0.000;2023-04-01T10:58:40;2.75;;;0.77;;
35981;SDS011;22058;0.000;0.000;2023-04-01T11:01:05;3.10;;;1.17;;
35981;SDS011;22058;0.000;0.000;2023-04-01T11:03:46;1.38;;;0.70;;
35981;SDS011;22058;0.000;0.000;2023-04-01T11:11:47;3.67;;;0.90;;
35981;SDS011;22058;0.000;0.000;2023-04-01T11:14:21;2.50;;;1.20;;
35981;SDS011;22058;0.000;0.000;2023-04-01T11:22:18;2.85;;;1.02;;
35981;SDS011;22058;0.000;0.000;2023-04-01T11:32:39;1.05;;;0.60;;
35981;SDS011;22058;0.000;0.000;2023-04-01T11:45:36;4.15;;;0.98;;
35981;SDS011;22058;0.000;0.000;2023-04-01T11:50:44;0.98;;;0.73;;
35981;SDS011;22058;0.000;0.000;2023-04-01T11:53:31;1.15;;;0.70;;
35981;SDS011;22058;0.000;0.000;2023-04-01T11:58:57;3.58;;;0.80;;
35981;SDS011;22058;0.000;0.000;2023-04-01T12:01:27;2.13;;;1.00;;
35981;SDS011;22058;0.000;0.000;2023-04-01T12:04:00;1.10;;;0.90;;
35981;SDS011;22058;0.000;0.000;2023-04-01T12:11:49;1.13;;;0.77;;
35981;SDS011;22058;0.000;0.000;2023-04-01T12:14:39;2.67;;;0.80;;
35981;SDS011;22058;0.000;0.000;2023-04-01T12:24:45;1.40;;;1.08;;
35981;SDS011;22058;0.000;0.000;2023-04-01T12:27:25;3.30;;;0.88;;
35981;SDS011;22058;0.000;0.000;2023-04-01T12:35:32;2.17;;;0.90;;
35981;SDS011;22058;0.000;0.000;2023-04-01T12:38:47;3.03;;;0.82;;
35981;SDS011;22058;0.000;0.000;2023-04-01T12:44:23;1.35;;;0.70;;
35981;SDS011;22058;0.000;0.000;2023-04-01T12:46:47;0.98;;;0.70;;
35981;SDS011;22058;0.000;0.000;2023-04-01T12:52:11;1.50;;;1.08;;
35981;SDS011;22058;0.000;0.000;2023-04-01T13:05:31;5.32;;;0.85;;
35981;SDS011;22058;0.000;0.000;2023-04-01T13:08:18;0.82;;;0.80;;
35981;SDS011;22058;0.000;0.000;2023-04-01T13:10:53;1.80;;;0.60;;
35981;SDS011;22058;0.000;0.000;2023-04-01T13:29:17;1.23;;;0.70;;
35981;SDS011;22058;0.000;0.000;2023-04-01T13:37:08;1.80;;;0.98;;
35981;SDS011;22058;0.000;0.000;2023-04-01T13:39:40;0.50;;;0.50;;
35981;SDS011;22058;0.000;0.000;2023-04-01T13:42:17;0.95;;;0.70;;
35981;SDS011;22058;0.000;0.000;2023-04-01T13:44:51;1.85;;;0.60;;
35981;SDS011;22058;0.000;0.000;2023-04-01T13:47:24;2.63;;;0.70;;
35981;SDS011;22058;0.000;0.000;2023-04-01T13:56:00;0.88;;;0.60;;
35981;SDS011;22058;0.000;0.000;2023-04-01T14:03:50;2.03;;;1.02;;
35981;SDS011;22058;0.000;0.000;2023-04-01T14:08:36;0.98;;;0.80;;
35981;SDS011;22058;0.000;0.000;2023-04-01T14:11:15;0.88;;;0.70;;
35981;SDS011;22058;0.000;0.000;2023-04-01T14:18:56;1.05;;;0.70;;
35981;SDS011;22058;0.000;0.000;2023-04-01T14:34:32;1.30;;;0.95;;
35981;SDS011;22058;0.000;0.000;2023-04-01T14:37:19;0.70;;;0.70;;
35981;SDS011;22058;0.000;0.000;2023-04-01T14:39:51;1.17;;;0.90;;
35981;SDS011;22058;0.000;0.000;2023-04-01T14:50:17;0.93;;;0.60;;
35981;SDS011;22058;0.000;0.000;2023-04-01T14:58:07;1.33;;;1.23;;
35981;SDS011;22058;0.000;0.000;2023-04-01T15:11:13;2.30;;;0.85;;
35981;SDS011;22058;0.000;0.000;2023-04-01T15:29:16;0.93;;;0.70;;
35981;SDS011;22058;0.000;0.000;2023-04-01T15:31:49;0.85;;;0.80;;
35981;SDS011;22058;0.000;0.000;2023-04-01T15:36:55;0.85;;;0.65;;
35981;SDS011;22058;0.000;0.000;2023-04-01T15:40:11;0.45;;;0.45;;
35981;SDS011;22058;0.000;0.000;2023-04-01T15:50:21;1.50;;;0.90;;
35981;SDS011;22058;0.000;0.000;2023-04-01T15:52:49;0.75;;;0.68;;
35981;SDS011;22058;0.000;0.000;2023-04-01T15:56:06;0.73;;;0.60;;
35981;SDS011;22058;0.000;0.000;2023-04-01T15:58:33;1.08;;;0.70;;
35981;SDS011;22058;0.000;0.000;2023-04-01T16:01:11;1.17;;;0.80;;
35981;SDS011;22058;0.000;0.000;2023-04-01T16:04:03;0.65;;;0.52;;
35981;SDS011;22058;0.000;0.000;2023-04-01T16:21:51;1.10;;;0.75;;
35981;SDS011;22058;0.000;0.000;2023-04-01T16:27:08;1.52;;;0.57;;
35981;SDS011;22058;0.000;0.000;2023-04-01T16:32:14;0.63;;;0.50;;
35981;SDS011;22058;0.000;0.000;2023-04-01T16:45:00;1.05;;;0.80;;
35981;SDS011;22058;0.000;0.000;2023-04-01T16:48:14;1.15;;;0.80;;
35981;SDS011;22058;0.000;0.000;2023-04-01T16:50:17;0.68;;;0.68;;
35981;SDS011;22058;0.000;0.000;2023-04-01T16:52:54;0.98;;;0.80;;
35981;SDS011;22058;0.000;0.000;2023-04-01T16:55:33;2.17;;;0.70;;
35981;SDS011;22058;0.000;0.000;2023-04-01T16:58:00;1.35;;;0.93;;
35981;SDS011;22058;0.000;0.000;2023-04-01T17:00:37;1.08;;;0.85;;
35981;SDS011;22058;0.000;0.000;2023-04-01T17:03:08;1.35;;;0.95;;
35981;SDS011;22058;0.000;0.000;2023-04-01T17:05:42;0.98;;;0.95;;
35981;SDS011;22058;0.000;0.000;2023-04-01T17:14:13;0.88;;;0.60;;
35981;SDS011;22058;0.000;0.000;2023-04-01T17:16:24;0.55;;;0.55;;
35981;SDS011;22058;0.000;0.000;2023-04-01T17:30:11;0.50;;;0.50;;
35981;SDS011;22058;0.000;0.000;2023-04-01T17:40:36;0.82;;;0.80;;
35981;SDS011;22058;0.000;0.000;2023-04-01T17:45:52;0.65;;;0.65;;
35981;SDS011;22058;0.000;0.000;2023-04-01T17:48:33;0.90;;;0.60;;
35981;SDS011;22058;0.000;0.000;2023-04-01T17:58:39;0.70;;;0.55;;
35981;SDS011;22058;0.000;0.000;2023-04-01T18:01:19;1.08;;;0.80;;
35981;SDS011;22058;0.000;0.000;2023-04-01T18:06:21;0.68;;;0.68;;
35981;SDS011;22058;0.000;0.000;2023-04-01T18:11:39;1.15;;;0.77;;
35981;SDS011;22058;0.000;0.000;2023-04-01T18:14:22;0.80;;;0.60;;
35981;SDS011;22058;0.000;0.000;2023-04-01T18:22:21;0.50;;;0.50;;
35981;SDS011;22058;0.000;0.000;2023-04-01T18:24:59;0.60;;;0.60;;
35981;SDS011;22058;0.000;0.000;2023-04-01T18:27:32;0.50;;;0.50;;
35981;SDS011;22058;0.000;0.000;2023-04-01T18:35:21;0.80;;;0.80;;
35981;SDS011;22058;0.000;0.000;2023-04-01T18:43:08;2.35;;;1.05;;
35981;SDS011;22058;0.000;0.000;2023-04-01T18:45:37;0.63;;;0.63;;
35981;SDS011;22058;0.000;0.000;2023-04-01T18:48:11;0.70;;;0.70;;
35981;SDS011;22058;0.000;0.000;2023-04-01T18:53:14;0.85;;;0.68;;
35981;SDS011;22058;0.000;0.000;2023-04-01T18:55:46;0.63;;;0.63;;
35981;SDS011;22058;0.000;0.000;2023-04-01T18:58:26;1.40;;;0.70;;
35981;SDS011;22058;0.000;0.000;2023-04-01T19:06:26;0.50;;;0.40;;
35981;SDS011;22058;0.000;0.000;2023-04-01T19:08:54;1.60;;;0.98;;
35981;SDS011;22058;0.000;0.000;2023-04-01T19:11:38;2.58;;;0.90;;
35981;SDS011;22058;0.000;0.000;2023-04-01T19:17:36;0.60;;;0.60;;
35981;SDS011;22058;0.000;0.000;2023-04-01T19:22:40;0.60;;;0.60;;
35981;SDS011;22058;0.000;0.000;2023-04-01T19:27:48;0.93;;;0.70;;
35981;SDS011;22058;0.000;0.000;2023-04-01T19:33:22;0.80;;;0.57;;
35981;SDS011;22058;0.000;0.000;2023-04-01T19:38:38;1.08;;;1.00;;
35981;SDS011;22058;0.000;0.000;2023-04-01T19:51:25;0.50;;;0.50;;
35981;SDS011;22058;0.000;0.000;2023-04-01T19:56:23;0.65;;;0.65;;
35981;SDS011;22058;0.000;0.000;2023-04-01T20:01:34;1.10;;;0.63;;
35981;SDS011;22058;0.000;0.000;2023-04-01T20:04:14;0.50;;;0.50;;
35981;SDS011;22058;0.000;0.000;2023-04-01T20:09:32;0.70;;;0.55;;
35981;SDS011;22058;0.000;0.000;2023-04-01T20:12:06;0.80;;;0.80;;
35981;SDS011;22058;0.000;0.000;2023-04-01T20:14:40;0.70;;;0.70;;
35981;SDS011;22058;0.000;0.000;2023-04-01T20:17:14;0.95;;;0.70;;
35981;SDS011;22058;0.000;0.000;2023-04-01T20:19:48;0.60;;;0.60;;
35981;SDS011;22058;0.000;0.000;2023-04-01T20:22:20;0.60;;;0.60;;
35981;SDS011;22058;0.000;0.000;2023-04-01T20:24:50;2.25;;;1.48;;
35981;SDS011;22058;0.000;0.000;2023-04-01T20:27:20;0.40;;;0.40;;
35981;SDS011;22058;0.000;0.000;2023-04-01T20:29:55;0.75;;;0.70;;
35981;SDS011;22058;0.000;0.000;2023-04-01T20:32:56;0.88;;;0.60;;
35981;SDS011;22058;0.000;0.000;2023-04-01T20:37:48;0.57;;;0.57;;
35981;SDS011;22058;0.000;0.000;2023-04-01T20:42:58;0.52;;;0.52;;
35981;SDS011;22058;0.000;0.000;2023-04-01T20:48:24;0.63;;;0.55;;
35981;SDS011;22058;0.000;0.000;2023-04-01T20:51:06;0.93;;;0.60;;
35981;SDS011;22058;0.000;0.000;2023-04-01T20:53:36;0.75;;;0.70;;
35981;SDS011;22058;0.000;0.000;2023-04-01T21:01:15;0.60;;;0.60;;
35981;SDS011;22058;0.000;0.000;2023-04-01T21:10:04;0.95;;;0.68;;
35981;SDS011;22058;0.000;0.000;2023-04-01T21:17:10;0.45;;;0.45;;
35981;SDS011;22058;0.000;0.000;2023-04-01T21:20:13;0.60;;;0.60;;
35981;SDS011;22058;0.000;0.000;2023-04-01T21:43:24;0.55;;;0.52;;
35981;SDS011;22058;0.000;0.000;2023-04-01T21:54:12;0.90;;;0.90;;
35981;SDS011;22058;0.000;0.000;2023-04-01T22:07:15;0.50;;;0.50;;
35981;SDS011;22058;0.000;0.000;2023-04-01T22:09:49;0.40;;;0.40;;
35981;SDS011;22058;0.000;0.000;2023-04-01T22:17:33;0.65;;;0.60;;
35981;SDS011;22058;0.000;0.000;2023-04-01T22:25:49;1.23;;;0.60;;
35981;SDS011;22058;0.000;0.000;2023-04-01T22:27:58;2.17;;;0.60;;
35981;SDS011;22058;0.000;0.000;2023-04-01T22:30:27;0.60;;;0.52;;
35981;SDS011;22058;0.000;0.000;2023-04-01T22:32:58;0.50;;;0.50;;
35981;SDS011;22058;0.000;0.000;2023-04-01T22:35:45;0.50;;;0.50;;
35981;SDS011;22058;0.000;0.000;2023-04-01T22:38:32;0.50;;;0.50;;
35981;SDS011;22058;0.000;0.000;2023-04-01T22:43:46;0.77;;;0.73;;
35981;SDS011;22058;0.000;0.000;2023-04-01T22:54:43;1.27;;;0.77;;
35981;SDS011;22058;0.000;0.000;2023-04-01T22:57:03;0.60;;;0.60;;
35981;SDS011;22058;0.000;0.000;2023-04-01T23:02:20;2.35;;;0.68;;
35981;SDS011;22058;0.000;0.000;2023-04-01T23:04:48;0.60;;;0.60;;
35981;SDS011;22058;0.000;0.000;2023-04-01T23:10:05;0.60;;;0.55;;
35981;SDS011;22058;0.000;0.000;2023-04-01T23:12:37;0.60;;;0.60;;
35981;SDS011;22058;0.000;0.000;2023-04-01T23:15:05;1.00;;;0.70;;
35981;SDS011;22058;0.000;0.000;2023-04-01T23:22:46;0.50;;;0.50;;
35981;SDS011;22058;0.000;0.000;2023-04-01T23:35:50;0.77;;;0.75;;
35981;SDS011;22058;0.000;0.000;2023-04-01T23:38:17;0.80;;;0.80;;
35981;SDS011;22058;0.000;0.000;2023-04-01T23:40:44;0.90;;;0.60;;
35981;SDS011;22058;0.000;0.000;2023-04-01T23:43:13;0.70;;;0.50;;
35981;SDS011;22058;0.000;0.000;2023-04-01T23:45:41;0.60;;;0.55;;
35981;SDS011;22058;0.000;0.000;2023-04-01T23:48:10;0.90;;;0.60;;
35981;SDS011;22058;0.000;0.000;2023-04-01T23:50:38;0.68;;;0.68;;
35981;SDS011;22058;0.000;0.000;2023-04-01T23:53:26;1.08;;;0.70;;
35981;SDS011;22058;0.000;0.000;2023-04-01T23:55:51;0.70;;;0.60;;
